createdAt,value
2022-08-23T00:00:12.911Z,-145.31
2022-08-23T00:02:43.337Z,-145.31
2022-08-23T00:05:12.929Z,-145.31
2022-08-23T00:07:45.607Z,-145.31
2022-08-23T00:10:17.324Z,-145.31
2022-08-23T00:12:46.521Z,-145.31
2022-08-23T00:15:18.144Z,-145.31
2022-08-23T00:17:46.316Z,-145.31
2022-08-23T00:20:16.885Z,-145.31
2022-08-23T00:22:46.520Z,-145.31
2022-08-23T00:25:16.680Z,-145.31
2022-08-23T00:27:45.350Z,-145.31
2022-08-23T00:30:14.680Z,-145.31
2022-08-23T00:32:43.822Z,-145.31
2022-08-23T00:35:22.261Z,-145.31
2022-08-23T00:38:32.097Z,-145.31
2022-08-23T00:40:46.979Z,-145.31
2022-08-23T00:43:35.119Z,-145.31
2022-08-23T00:46:28.480Z,-145.31
2022-08-23T00:48:59.094Z,-145.31
2022-08-23T00:51:32.051Z,-145.31
2022-08-23T00:54:13.871Z,-145.31
2022-08-23T00:56:42.941Z,-145.31
2022-08-23T00:59:13.312Z,-145.31
2022-08-23T01:01:43.743Z,-145.31
2022-08-23T01:04:14.040Z,-145.31
2022-08-23T01:06:49.812Z,-145.31
2022-08-23T01:09:22.250Z,-145.31
2022-08-23T01:11:54.543Z,-145.31
2022-08-23T01:14:29.659Z,-145.31
2022-08-23T01:17:03.513Z,-145.31
2022-08-23T01:19:35.455Z,-145.31
2022-08-23T01:22:19.475Z,-145.31
2022-08-23T01:25:07.111Z,-145.31
2022-08-23T01:27:40.239Z,-145.31
2022-08-23T01:30:12.756Z,-145.31
2022-08-23T01:32:46.939Z,-145.31
2022-08-23T01:35:16.880Z,-145.31
2022-08-23T01:37:46.152Z,-145.31
2022-08-23T01:40:16.235Z,-145.31
2022-08-23T01:42:45.234Z,-145.31
2022-08-23T01:45:15.684Z,-145.31
2022-08-23T01:47:44.542Z,-145.31
2022-08-23T01:50:14.080Z,-145.31
2022-08-23T01:52:46.850Z,-145.31
2022-08-23T01:55:18.928Z,-145.31
2022-08-23T01:57:51.506Z,-145.31
2022-08-23T02:00:22.589Z,-145.31
2022-08-23T02:02:51.289Z,-145.31
2022-08-23T02:05:20.050Z,-145.31
2022-08-23T02:07:48.918Z,-145.31
2022-08-23T02:10:20.683Z,-145.31
2022-08-23T02:12:50.835Z,-145.31
2022-08-23T02:15:19.313Z,-145.31
2022-08-23T02:17:48.777Z,-145.31
2022-08-23T02:20:17.055Z,-145.31
2022-08-23T02:22:45.267Z,-145.31
2022-08-23T02:25:13.669Z,-145.31
2022-08-23T02:27:44.262Z,-145.31
2022-08-23T02:30:15.282Z,-145.31
2022-08-23T02:32:44.347Z,-145.31
2022-08-23T02:35:13.772Z,-145.31
2022-08-23T02:37:41.915Z,-145.31
2022-08-23T02:40:11.507Z,-145.31
2022-08-23T02:42:39.893Z,-145.31
2022-08-23T02:45:10.837Z,-145.31
2022-08-23T02:47:45.718Z,-145.31
2022-08-23T02:50:21.327Z,-145.31
2022-08-23T02:52:49.638Z,-145.31
2022-08-23T02:55:18.594Z,-145.31
2022-08-23T02:57:46.709Z,-145.31
2022-08-23T03:00:18.413Z,-145.31
2022-08-23T03:02:47.253Z,-145.31
2022-08-23T03:05:16.210Z,-145.31
2022-08-23T03:07:44.861Z,-145.31
2022-08-23T03:10:14.950Z,-145.31
2022-08-23T03:12:48.526Z,-145.31
2022-08-23T03:15:18.214Z,-145.31
2022-08-23T03:17:46.387Z,-145.31
2022-08-23T03:20:14.598Z,-145.31
2022-08-23T03:22:49.646Z,-145.31
2022-08-23T03:25:25.246Z,-145.31
2022-08-23T03:28:16.792Z,-145.31
2022-08-23T03:30:47.719Z,-145.31
2022-08-23T03:33:16.303Z,-145.31
2022-08-23T03:35:47.293Z,-145.31
2022-08-23T03:38:16.348Z,-145.31
2022-08-23T03:40:47.930Z,-145.31
2022-08-23T03:43:17.479Z,-145.31
2022-08-23T03:45:47.422Z,-145.31
2022-08-23T03:48:17.820Z,-145.31
2022-08-23T03:50:47.589Z,-145.31
2022-08-23T03:53:16.289Z,-145.31
2022-08-23T03:55:50.549Z,-145.31
2022-08-23T03:58:21.614Z,-145.31
2022-08-23T04:00:51.965Z,-145.31
2022-08-23T04:03:20.477Z,-145.31
2022-08-23T04:05:58.852Z,-145.31
2022-08-23T04:08:33.288Z,-145.31
2022-08-23T04:11:06.419Z,-145.31
2022-08-23T04:13:42.408Z,-145.31
2022-08-23T04:16:13.865Z,-145.31
2022-08-23T04:18:42.971Z,-145.31
2022-08-23T04:21:18.264Z,-145.31
2022-08-23T04:23:47.194Z,-145.31
2022-08-23T04:26:15.851Z,-145.31
2022-08-23T04:28:48.773Z,-145.31
2022-08-23T04:31:19.714Z,-145.31
2022-08-23T04:33:52.489Z,-145.31
2022-08-23T04:36:28.036Z,-145.31
2022-08-23T04:39:21.735Z,-145.31
2022-08-23T04:42:11.086Z,-145.31
2022-08-23T04:44:41.993Z,-145.31
2022-08-23T04:47:11.859Z,-145.31
2022-08-23T04:49:42.653Z,-145.31
2022-08-23T04:52:16.149Z,-145.31
2022-08-23T04:54:48.191Z,-145.31
2022-08-23T04:57:42.889Z,-145.31
2022-08-23T05:00:16.418Z,-145.31
2022-08-23T05:02:53.201Z,-145.31
2022-08-23T05:05:22.184Z,-145.31
2022-08-23T05:07:51.468Z,-145.31
2022-08-23T05:10:20.287Z,-145.31
2022-08-23T05:12:52.637Z,-145.31
2022-08-23T05:15:22.651Z,-145.31
2022-08-23T05:18:01.795Z,-145.31
2022-08-23T05:20:31.382Z,-145.31
2022-08-23T05:23:02.345Z,-145.31
2022-08-23T05:25:47.396Z,-145.31
2022-08-23T05:28:17.089Z,-145.31
2022-08-23T05:30:56.323Z,-145.31
2022-08-23T05:33:27.128Z,-145.31
2022-08-23T05:35:56.055Z,-145.31
2022-08-23T05:38:25.072Z,-145.31
2022-08-23T05:40:57.350Z,-145.31
2022-08-23T05:43:28.185Z,-145.31
2022-08-23T05:46:04.518Z,-145.31
2022-08-23T05:48:38.326Z,-145.31
2022-08-23T05:51:11.912Z,-145.31
2022-08-23T05:53:40.617Z,-145.31
2022-08-23T05:56:14.419Z,-145.31
2022-08-23T05:58:43.716Z,-145.31
2022-08-23T06:01:14.190Z,-145.31
2022-08-23T06:03:45.146Z,-145.31
2022-08-23T06:06:14.905Z,-145.31
2022-08-23T06:08:46.967Z,-145.31
2022-08-23T06:11:18.081Z,-145.31
2022-08-23T06:13:51.634Z,-145.31
2022-08-23T06:16:24.770Z,-145.31
2022-08-23T06:18:56.125Z,-145.31
2022-08-23T06:21:45.207Z,-145.31
2022-08-23T06:24:14.481Z,-145.31
2022-08-23T06:27:01.425Z,-145.31
2022-08-23T06:29:29.772Z,-145.31
2022-08-23T06:32:16.919Z,-145.31
2022-08-23T06:35:33.330Z,-145.31
2022-08-23T06:38:04.348Z,-145.31
2022-08-23T06:41:02.087Z,-145.31
2022-08-23T06:43:53.722Z,-145.31
2022-08-23T06:46:34.228Z,-145.31
2022-08-23T06:49:07.028Z,-145.31
2022-08-23T06:51:39.264Z,-145.31
2022-08-23T06:54:21.955Z,-145.31
2022-08-23T06:56:51.259Z,-145.31
2022-08-23T06:59:28.635Z,-145.31
2022-08-23T07:02:15.726Z,-145.31
2022-08-23T07:04:58.880Z,-145.31
2022-08-23T07:07:55.117Z,-145.31
2022-08-23T07:10:23.584Z,-145.31
2022-08-23T07:12:52.436Z,-145.31
2022-08-23T07:15:22.166Z,-145.31
2022-08-23T07:17:50.498Z,-145.31
2022-08-23T07:20:19.343Z,-145.31
2022-08-23T07:22:47.640Z,-145.31
2022-08-23T07:25:17.408Z,-145.31
2022-08-23T07:27:49.409Z,-145.31
2022-08-23T07:30:21.507Z,-145.31
2022-08-23T07:32:51.907Z,-145.31
2022-08-23T07:35:24.530Z,-145.31
2022-08-23T07:37:57.326Z,-145.31
2022-08-23T07:40:38.832Z,-145.31
2022-08-23T07:43:08.095Z,-145.31
2022-08-23T07:45:37.698Z,-145.31
2022-08-23T07:48:07.184Z,-145.31
2022-08-23T07:50:54.758Z,-145.31
2022-08-23T07:53:37.823Z,-145.31
2022-08-23T07:56:11.123Z,-145.31
2022-08-23T07:58:59.238Z,-145.31
2022-08-23T08:01:57.219Z,-145.31
2022-08-23T08:04:26.790Z,-145.31
2022-08-23T08:07:17.540Z,-145.31
2022-08-23T08:09:47.285Z,-145.31
2022-08-23T08:12:18.441Z,-145.31
2022-08-23T08:14:49.330Z,-145.31
2022-08-23T08:17:21.333Z,-145.31
2022-08-23T08:20:12.789Z,-145.31
2022-08-23T08:23:00.538Z,-145.31
2022-08-23T08:25:31.070Z,-145.31
2022-08-23T08:28:02.242Z,-145.31
2022-08-23T08:30:30.719Z,-145.31
2022-08-23T08:32:59.570Z,-145.31
2022-08-23T08:35:27.826Z,-145.31
2022-08-23T08:37:56.474Z,-145.31
2022-08-23T08:40:32.567Z,-145.31
2022-08-23T08:43:15.332Z,-145.31
2022-08-23T08:45:58.703Z,-145.31
2022-08-23T08:48:30.631Z,-145.31
2022-08-23T08:51:04.900Z,-145.31
2022-08-23T08:53:39.493Z,-145.31
2022-08-23T08:56:20.962Z,-145.31
2022-08-23T08:59:00.166Z,-145.31
2022-08-23T09:01:31.128Z,-145.31
2022-08-23T09:03:59.865Z,-145.31
2022-08-23T09:06:35.579Z,-145.31
2022-08-23T09:09:35.367Z,-145.31
2022-08-23T09:12:16.155Z,-145.31
2022-08-23T09:15:04.349Z,-145.31
2022-08-23T09:17:43.920Z,-145.31
2022-08-23T09:20:15.105Z,-145.31
2022-08-23T09:22:51.318Z,-145.31
2022-08-23T09:25:32.698Z,-145.31
2022-08-23T09:28:17.304Z,-145.31
2022-08-23T09:30:57.892Z,-145.31
2022-08-23T09:33:38.440Z,-145.31
2022-08-23T09:36:16.033Z,-145.31
2022-08-23T09:38:55.884Z,-145.31
2022-08-23T09:41:28.483Z,-145.31
2022-08-23T09:44:02.138Z,-145.31
2022-08-23T09:46:35.846Z,-145.31
2022-08-23T09:49:25.104Z,-145.31
2022-08-23T09:51:57.954Z,-145.31
2022-08-23T09:54:36.657Z,-145.31
2022-08-23T09:57:14.416Z,-145.31
2022-08-23T09:59:46.240Z,-145.31
2022-08-23T10:02:27.927Z,-145.31
2022-08-23T10:05:01.833Z,-145.31
2022-08-23T10:07:38.358Z,-145.31
2022-08-23T10:10:23.348Z,-145.31
2022-08-23T10:12:54.428Z,-145.31
2022-08-23T10:15:42.192Z,-145.31
2022-08-23T10:18:23.706Z,-145.31
2022-08-23T10:21:01.601Z,-145.31
2022-08-23T10:23:41.020Z,-145.31
2022-08-23T10:26:16.141Z,-145.31
2022-08-23T10:29:08.255Z,-145.31
2022-08-23T10:31:41.649Z,-145.31
2022-08-23T10:34:50.663Z,-145.31
2022-08-23T10:37:44.509Z,-145.31
2022-08-23T10:40:20.220Z,-145.31
2022-08-23T10:43:02.609Z,-145.31
2022-08-23T10:45:33.744Z,-145.31
2022-08-23T10:48:21.440Z,-145.31
2022-08-23T10:50:56.383Z,-145.31
2022-08-23T10:53:34.256Z,-145.31
2022-08-23T10:56:06.170Z,-145.31
2022-08-23T10:58:47.468Z,-145.31
2022-08-23T11:01:20.775Z,-145.31
2022-08-23T11:03:59.045Z,-145.31
2022-08-23T11:06:45.797Z,-145.31
2022-08-23T11:09:48.013Z,-145.31
2022-08-23T11:12:28.922Z,-145.31
2022-08-23T11:15:19.309Z,-145.31
2022-08-23T11:17:59.683Z,-145.31
2022-08-23T11:21:15.136Z,-145.31
2022-08-23T11:23:54.314Z,-145.31
2022-08-23T11:27:06.783Z,-145.31
2022-08-23T11:29:43.460Z,-145.31
2022-08-23T11:32:43.823Z,-145.31
2022-08-23T11:35:43.005Z,-145.31
2022-08-23T11:38:13.098Z,-145.31
2022-08-23T11:41:21.926Z,-145.31
2022-08-23T11:44:13.988Z,-145.31
2022-08-23T11:46:59.610Z,-145.31
2022-08-23T11:49:58.720Z,-145.31
2022-08-23T11:52:39.144Z,-145.31
2022-08-23T11:55:39.855Z,-145.31
2022-08-23T11:58:24.646Z,-145.31
2022-08-23T12:01:07.824Z,-145.31
2022-08-23T12:03:44.675Z,-145.31
2022-08-23T12:06:50.445Z,-145.31
2022-08-23T12:09:52.251Z,-145.31
2022-08-23T12:12:46.999Z,-145.31
2022-08-23T12:15:18.182Z,-145.31
2022-08-23T12:18:08.042Z,-145.31
2022-08-23T12:20:38.840Z,-145.31
2022-08-23T12:23:14.871Z,-145.31
2022-08-23T12:25:43.859Z,-145.31
2022-08-23T12:28:31.457Z,-145.31
2022-08-23T12:31:08.215Z,-145.31
2022-08-23T12:33:52.131Z,-145.31
2022-08-23T12:36:25.827Z,-145.31
2022-08-23T12:39:01.849Z,-145.31
2022-08-23T12:41:32.055Z,-145.31
2022-08-23T12:44:03.553Z,-145.31
2022-08-23T12:46:39.554Z,-145.31
2022-08-23T12:49:13.506Z,-145.31
2022-08-23T12:51:50.780Z,-145.31
2022-08-23T12:54:22.570Z,-145.31
2022-08-23T12:56:53.642Z,-145.31
2022-08-23T12:59:44.915Z,-145.31
2022-08-23T13:02:27.308Z,-145.31
2022-08-23T13:04:59.868Z,-145.31
2022-08-23T13:07:28.419Z,-145.31
2022-08-23T13:09:57.749Z,-145.31
2022-08-23T13:12:28.179Z,-145.31
2022-08-23T13:15:01.391Z,-145.31
2022-08-23T13:17:36.779Z,-145.31
2022-08-23T13:20:22.153Z,-145.31
2022-08-23T13:23:01.607Z,-145.31
2022-08-23T13:25:33.273Z,-145.31
2022-08-23T13:28:03.842Z,-145.31
2022-08-23T13:30:33.987Z,-145.31
2022-08-23T13:33:23.449Z,-145.31
2022-08-23T13:36:06.252Z,-145.31
2022-08-23T13:38:43.931Z,-145.31
2022-08-23T13:41:27.659Z,-145.31
2022-08-23T13:43:56.161Z,-145.31
2022-08-23T13:46:26.529Z,-145.31
2022-08-23T13:49:01.272Z,-145.31
2022-08-23T13:51:36.966Z,-145.31
2022-08-23T13:54:08.322Z,-145.31
2022-08-23T13:56:39.356Z,-145.31
2022-08-23T13:59:20.144Z,-145.31
2022-08-23T14:01:48.682Z,-145.31
2022-08-23T14:04:18.282Z,-145.31
2022-08-23T14:06:48.905Z,-145.31
2022-08-23T14:09:18.107Z,-145.31
2022-08-23T14:13:04.751Z,32.18
2022-08-23T14:18:21.178Z,31.43
2022-08-23T14:20:51.218Z,31.15
2022-08-23T14:23:20.020Z,30.87
2022-08-23T14:25:49.867Z,30.18
2022-08-23T14:28:19.846Z,29.53
2022-08-23T14:30:48.566Z,29.57
2022-08-23T14:33:16.751Z,29.25
2022-08-23T14:35:45.128Z,29.29
2022-08-23T14:38:15.367Z,28.81
2022-08-23T14:40:51.444Z,28.67
2022-08-23T14:43:22.307Z,28.33
2022-08-23T14:45:54.234Z,28.20
2022-08-23T14:48:23.269Z,28.21
2022-08-23T14:50:51.690Z,28.04
2022-08-23T14:53:22.686Z,27.70
2022-08-23T14:56:12.350Z,27.58
2022-08-23T14:58:43.060Z,27.14
2022-08-23T15:01:12.560Z,27.21
2022-08-23T15:03:42.290Z,27.18
2022-08-23T15:06:10.951Z,27.11
2022-08-23T15:08:39.426Z,26.91
2022-08-23T15:14:00.414Z,26.73
2022-08-23T15:16:29.335Z,26.64
2022-08-23T15:18:58.083Z,26.60
2022-08-23T15:21:26.236Z,26.68
2022-08-23T15:23:54.696Z,26.55
2022-08-23T15:26:25.246Z,26.46
2022-08-23T15:28:54.081Z,26.14
2022-08-23T15:31:24.009Z,26.29
2022-08-23T15:33:52.285Z,26.31
2022-08-23T15:36:20.524Z,26.33
2022-08-23T15:38:49.847Z,26.42
2022-08-23T15:41:19.888Z,26.43
2022-08-23T15:43:48.584Z,26.48
2022-08-23T15:46:20.775Z,26.74
2022-08-23T15:48:55.108Z,27.02
2022-08-23T15:51:23.299Z,27.09
2022-08-23T15:53:51.664Z,26.78
2022-08-23T15:56:23.032Z,26.37
2022-08-23T15:58:51.284Z,26.03
2022-08-23T16:01:24.296Z,26.07
2022-08-23T16:03:54.201Z,26.02
2022-08-23T16:06:22.477Z,25.98
2022-08-23T16:08:53.441Z,25.99
2022-08-23T16:11:22.000Z,25.93
2022-08-23T16:13:51.638Z,25.79
2022-08-23T16:16:26.360Z,25.79
2022-08-23T16:18:58.030Z,25.82
2022-08-23T16:21:28.968Z,25.92
2022-08-23T16:23:58.198Z,25.87
2022-08-23T16:26:34.535Z,25.69
2022-08-23T16:29:05.547Z,25.53
2022-08-23T16:31:38.638Z,25.40
2022-08-23T16:34:11.541Z,25.40
2022-08-23T16:36:42.331Z,25.20
2022-08-23T16:39:12.728Z,24.99
2022-08-23T16:41:40.854Z,24.93
2022-08-23T16:44:09.460Z,24.91
2022-08-23T16:46:41.226Z,24.87
2022-08-23T16:49:11.576Z,24.79
2022-08-23T16:51:39.798Z,24.82
2022-08-23T16:54:08.444Z,24.77
2022-08-23T16:56:38.607Z,24.63
2022-08-23T16:59:09.368Z,24.65
2022-08-23T17:01:46.136Z,24.70
2022-08-23T17:04:16.848Z,24.64
2022-08-23T17:06:46.190Z,24.59
2022-08-23T17:09:15.676Z,24.55
2022-08-23T17:11:45.688Z,24.48
2022-08-23T17:14:14.537Z,24.36
2022-08-23T17:16:44.218Z,24.24
2022-08-23T17:19:13.177Z,24.16
2022-08-23T17:21:43.626Z,23.99
2022-08-23T17:24:11.828Z,23.89
2022-08-23T17:26:40.033Z,23.93
2022-08-23T17:29:09.411Z,23.96
2022-08-23T17:31:38.331Z,23.91
2022-08-23T17:34:07.648Z,23.86
2022-08-23T17:36:39.583Z,23.86
2022-08-23T17:39:12.268Z,23.82
2022-08-23T17:41:45.015Z,23.88
2022-08-23T17:44:14.742Z,23.89
2022-08-23T17:46:45.156Z,23.95
2022-08-23T17:49:14.691Z,23.95
2022-08-23T17:51:43.211Z,23.96
2022-08-23T17:54:15.935Z,23.96
2022-08-23T17:56:49.993Z,23.93
2022-08-23T17:59:19.693Z,23.94
2022-08-23T18:01:48.061Z,23.93
2022-08-23T18:04:16.447Z,23.83
2022-08-23T18:06:44.986Z,23.84
2022-08-23T18:09:14.970Z,23.85
2022-08-23T18:11:43.104Z,23.84
2022-08-23T18:14:13.295Z,23.73
2022-08-23T18:16:43.964Z,23.61
2022-08-23T18:19:14.084Z,23.50
2022-08-23T18:21:43.303Z,23.40
2022-08-23T18:24:12.119Z,23.43
2022-08-23T18:27:00.561Z,23.42
2022-08-23T18:29:29.934Z,23.33
2022-08-23T18:31:58.119Z,23.35
2022-08-23T18:34:26.285Z,23.28
2022-08-23T18:36:54.744Z,23.24
2022-08-23T18:39:31.224Z,23.17
2022-08-23T18:42:02.970Z,23.07
2022-08-23T18:44:31.739Z,22.99
2022-08-23T18:46:59.898Z,22.92
2022-08-23T18:49:27.999Z,23.01
2022-08-23T18:51:56.666Z,22.98
2022-08-23T18:54:24.780Z,22.87
2022-08-23T18:56:53.065Z,22.77
2022-08-23T18:59:22.552Z,22.81
2022-08-23T19:01:51.322Z,22.77
2022-08-23T19:04:20.062Z,22.78
2022-08-23T19:06:49.360Z,22.76
2022-08-23T19:09:22.753Z,22.77
2022-08-23T19:11:51.250Z,22.77
2022-08-23T19:14:19.540Z,22.74
2022-08-23T19:16:49.074Z,22.72
2022-08-23T19:19:18.759Z,22.66
2022-08-23T19:21:47.009Z,22.67
2022-08-23T19:24:15.174Z,22.66
2022-08-23T19:26:47.580Z,22.58
2022-08-23T19:29:16.221Z,22.51
2022-08-23T19:31:47.936Z,22.48
2022-08-23T19:34:20.518Z,22.47
2022-08-23T19:36:58.085Z,22.49
2022-08-23T19:39:29.736Z,22.46
2022-08-23T19:41:58.540Z,22.50
2022-08-23T19:44:26.680Z,22.48
2022-08-23T19:46:56.343Z,22.46
2022-08-23T19:49:25.930Z,22.44
2022-08-23T19:52:07.779Z,22.39
2022-08-23T19:54:39.757Z,22.39
2022-08-23T19:57:10.213Z,22.41
2022-08-23T20:02:33.672Z,22.36
2022-08-23T20:05:03.332Z,22.38
2022-08-23T20:07:31.500Z,22.35
2022-08-23T20:09:59.776Z,22.27
2022-08-23T20:12:29.133Z,22.31
2022-08-23T20:14:57.514Z,22.31
2022-08-23T20:17:25.678Z,22.33
2022-08-23T20:19:54.362Z,22.30
2022-08-23T20:22:41.487Z,22.27
2022-08-23T20:25:10.379Z,22.20
2022-08-23T20:27:39.312Z,22.20
2022-08-23T20:30:10.274Z,22.15
2022-08-23T20:32:39.438Z,22.15
2022-08-23T20:35:11.420Z,22.18
2022-08-23T20:37:41.175Z,22.15
2022-08-23T20:40:11.878Z,22.12
2022-08-23T20:42:40.375Z,22.13
2022-08-23T20:45:09.768Z,22.14
2022-08-23T20:47:37.883Z,22.10
2022-08-23T20:50:06.682Z,22.14
2022-08-23T20:52:35.058Z,22.06
2022-08-23T20:55:10.540Z,22.02
2022-08-23T20:57:39.121Z,22.00
2022-08-23T21:00:08.867Z,21.93
2022-08-23T21:02:37.040Z,21.95
2022-08-23T21:05:06.678Z,21.91
2022-08-23T21:07:36.969Z,21.90
2022-08-23T21:10:07.641Z,21.85
2022-08-23T21:12:37.257Z,21.85
2022-08-23T21:15:10.309Z,21.87
2022-08-23T21:17:38.958Z,21.85
2022-08-23T21:20:08.104Z,21.84
2022-08-23T21:22:36.248Z,21.79
2022-08-23T21:25:07.127Z,21.83
2022-08-23T21:27:35.368Z,21.85
2022-08-23T21:30:03.909Z,21.84
2022-08-23T21:32:32.033Z,21.80
2022-08-23T21:35:00.790Z,21.68
2022-08-23T21:37:30.073Z,21.62
2022-08-23T21:39:58.210Z,21.58
2022-08-23T21:42:27.821Z,21.54
2022-08-23T21:44:55.955Z,21.51
2022-08-23T21:47:24.281Z,21.55
2022-08-23T21:49:53.106Z,21.49
2022-08-23T21:52:21.536Z,21.44
2022-08-23T21:54:49.937Z,21.44
2022-08-23T21:57:18.222Z,21.50
2022-08-23T21:59:48.119Z,21.48
2022-08-23T22:02:16.251Z,21.40
2022-08-23T22:04:46.367Z,21.43
2022-08-23T22:07:14.450Z,21.53
2022-08-23T22:09:42.741Z,21.54
2022-08-23T22:12:10.999Z,21.48
2022-08-23T22:14:39.668Z,21.35
2022-08-23T22:17:09.164Z,21.29
2022-08-23T22:19:37.327Z,21.29
2022-08-23T22:22:05.475Z,21.20
2022-08-23T22:24:33.703Z,21.16
2022-08-23T22:27:01.823Z,21.13
2022-08-23T22:29:30.120Z,21.10
2022-08-23T22:31:58.243Z,21.04
2022-08-23T22:34:27.761Z,21.01
2022-08-23T22:36:56.224Z,20.96
2022-08-23T22:39:26.039Z,20.89
2022-08-23T22:41:54.304Z,20.84
2022-08-23T22:44:22.772Z,20.78
2022-08-23T22:46:50.909Z,20.73
2022-08-23T22:49:19.038Z,20.69
2022-08-23T22:51:49.169Z,20.67
2022-08-23T22:54:24.739Z,20.66
2022-08-23T22:56:54.076Z,20.56
2022-08-23T22:59:27.480Z,20.58
2022-08-23T23:01:58.716Z,20.48
2022-08-23T23:04:28.149Z,20.49
2022-08-23T23:06:58.355Z,20.43
2022-08-23T23:09:26.930Z,20.41
2022-08-23T23:11:56.275Z,20.39
2022-08-23T23:14:24.660Z,20.37
2022-08-23T23:16:53.339Z,20.31
2022-08-23T23:19:39.203Z,20.27
2022-08-23T23:22:10.188Z,20.24
2022-08-23T23:24:40.697Z,20.23
2022-08-23T23:27:10.301Z,20.23
2022-08-23T23:29:38.620Z,20.28
2022-08-23T23:32:07.078Z,20.28
2022-08-23T23:34:36.543Z,20.31
2022-08-23T23:37:05.096Z,20.29
2022-08-23T23:39:34.751Z,20.27
2022-08-23T23:42:02.937Z,20.26
2022-08-23T23:44:31.915Z,20.28
2022-08-23T23:47:01.344Z,20.29
2022-08-23T23:49:32.202Z,20.32
2022-08-23T23:52:02.275Z,20.28
2022-08-23T23:54:31.487Z,20.24
2022-08-23T23:57:01.100Z,20.23
2022-08-23T23:59:29.534Z,20.21
